KGNV/GNV METAR and TAF weather

Enter ICAO airport designator
Station Type Date Time Source
KGNV METAR 2021/04/18 02:53 UTC NOAA

KGNV 180253Z AUTO 00000KT 9SM FEW020 OVC060 19/18 A2993 RMK AO2 RAB0156E18 SLP133 P0002 60029 T01940183 53020


Station Type Date Time Source
KGNV Decoded METAR 2021/04/18 02:53 UTC NOAA

GAINESVILLE REGIONAL AIRPORT , FL, United States (KGNV) 29-42N 082-17W 45M
Apr 17, 2021 - 10:53 PM EDT / 2021.04.18 0253 UTC
Wind: Calm:0
Visibility: 9 mile(s):0
Sky conditions: overcast
Precipitation last hour: 0.02 inches
Temperature: 66.9 F (19.4 C)
Dew Point: 64.9 F (18.3 C)
Relative Humidity: 93%
Pressure (altimeter): 29.93 in. Hg (1013 hPa)
Pressure tendency: 0.06 inches (2.0 hPa) higher than three hours ago
ob: KGNV 180253Z AUTO 00000KT 9SM FEW020 OVC060 19/18 A2993 RMK AO2 RAB0156E18 SLP133 P0002 60029 T01940183 53020
cycle: 3

Station Type Date Time Source
KGNV TAF 2021/04/18 03:04 UTC NOAA

TAF
AMD KGNV 180302Z 1803/1824 29004KT 6SM SHRA VCTS SCT012CB BKN035 OVC050
TEMPO 1803/1805 VRB12G22KT 2SM +TSRA BKN010 OVC015CB
FM180600 29004KT P6SM VCSH BKN015 OVC050
FM180700 29005KT 6SM SHRA BKN007 OVC015
FM181600 31004KT P6SM VCSH SCT010 OVC015 PROB30 1816/1822 3SM TSRA BKN007CB OVC012

Example: see airport list